Prospect, Ohio
Current Conditions -  °F | °C
As of 7:36 AM on Monday 20 Oct 2014 (Local Time) from KDLZ Reporting Station
Overcast Overcast  
Wind Chill: 41°   Ceiling: 11000
Heat Index: 45°   Visibility: 10mi
Dew Point: 37°   Wind: 7mph
Humidity: 76%   Direction: 200°SSW
Pressure: 29.98"   Gusts: NA
Location:  40.45°N, 83.19°W
Report Text: KDLZ 201136Z AUTO 20006KT 10SM OVC110 07/03 A2998 RMK AO2
Loading
Personal Weather Stations






























Interactive Weather Map
Tropical Storm Tracking
New forecast layout! Learn more

10-Day Weather Forecast

Advertisements
Track Severe Weather on mobile